Time;durP1;ratioP1;P1;durP2;ratioP2;P2;SDS_P1;SDS_P2;PMS_P1;PMS_P2;Temp;Humidity;BMP_temperature;BMP_pressure;BME280_temperature;BME280_humidity;BME280_pressure;Samples;Min_cycle;Max_cycle;Signal;HPM_P1;HPM_P2
2022/04/17 00:00:10;;;;;;;105.57;14.67;;;;;;;;;;5009212;28;20240;-50
2022/04/17 00:02:36;;;;;;;80.73;11.63;;;;;;;;;;5005914;28;20172;-50
2022/04/17 00:05:02;;;;;;;170.13;22.83;;;;;;;;;;5009307;28;20254;-50
2022/04/17 00:07:28;;;;;;;56.30;8.27;;;;;;;;;;5009476;28;20323;-50
2022/04/17 00:09:54;;;;;;;101.40;14.07;;;;;;;;;;5004437;28;20695;-49
2022/04/17 00:12:23;;;;;;;79.17;11.23;;;;;;;;;;5011620;28;20208;-50
2022/04/17 00:14:49;;;;;;;116.90;16.03;;;;;;;;;;5004041;28;20262;-50
2022/04/17 00:17:15;;;;;;;106.30;14.93;;;;;;;;;;5007978;28;20218;-50
2022/04/17 00:19:41;;;;;;;109.50;15.40;;;;;;;;;;5007031;28;20228;-50
2022/04/17 00:22:07;;;;;;;94.20;13.47;;;;;;;;;;5007961;28;20356;-50
2022/04/17 00:24:33;;;;;;;128.33;17.90;;;;;;;;;;5008742;28;20223;-50
2022/04/17 00:27:00;;;;;;;117.87;16.50;;;;;;;;;;5004585;28;20223;-50
2022/04/17 00:29:27;;;;;;;88.23;13.10;;;;;;;;;;5005490;28;20199;-50
2022/04/17 00:31:53;;;;;;;88.07;12.70;;;;;;;;;;5004908;28;20173;-50
2022/04/17 00:34:22;;;;;;;116.37;16.40;;;;;;;;;;5006781;28;20220;-50
2022/04/17 00:36:48;;;;;;;102.23;14.50;;;;;;;;;;5003736;28;20220;-50
2022/04/17 00:39:13;;;;;;;94.17;13.33;;;;;;;;;;5007375;28;20343;-50
2022/04/17 00:41:39;;;;;;;57.20;8.63;;;;;;;;;;4995352;28;20227;-50
2022/04/17 00:44:12;;;;;;;90.10;12.90;;;;;;;;;;5000613;28;20265;-50
2022/04/17 00:46:39;;;;;;;86.00;12.20;;;;;;;;;;5007111;28;20333;-50
2022/04/17 00:49:05;;;;;;;91.30;12.83;;;;;;;;;;5007625;28;20212;-50
2022/04/17 00:51:31;;;;;;;113.57;15.70;;;;;;;;;;5004667;28;20390;-50
2022/04/17 00:53:58;;;;;;;144.17;20.17;;;;;;;;;;5004216;28;22780;-50
2022/04/17 00:56:25;;;;;;;61.90;9.03;;;;;;;;;;5001956;28;20882;-50
2022/04/17 00:58:52;;;;;;;56.73;8.57;;;;;;;;;;5009715;28;20240;-50
2022/04/17 01:01:18;;;;;;;61.40;8.93;;;;;;;;;;5001160;28;20211;-50
2022/04/17 01:03:44;;;;;;;122.60;17.03;;;;;;;;;;5001733;28;20559;-50
2022/04/17 01:06:10;;;;;;;77.27;11.97;;;;;;;;;;5008178;28;20227;-50
2022/04/17 01:08:41;;;;;;;103.50;15.83;;;;;;;;;;5009459;28;21479;-50
2022/04/17 01:11:07;;;;;;;106.10;15.80;;;;;;;;;;5008117;28;20188;-50
2022/04/17 01:13:33;;;;;;;94.83;14.40;;;;;;;;;;5006667;28;20219;-50
2022/04/17 01:16:01;;;;;;;84.33;12.40;;;;;;;;;;5003525;28;20506;-50
2022/04/17 01:18:27;;;;;;;129.33;19.03;;;;;;;;;;5020123;28;20225;-50
2022/04/17 01:20:53;;;;;;;81.13;12.30;;;;;;;;;;5016587;28;20216;-50
2022/04/17 01:28:55;;;;;;;70.20;11.20;;;;;;;;;;4978064;28;20482;-50
2022/04/17 01:31:27;;;;;;;61.00;12.00;;;;;;;;;;5007156;28;20269;-50
2022/04/17 01:33:53;;;;;;;119.20;21.17;;;;;;;;;;5001738;28;20250;-50
2022/04/17 01:36:18;;;;;;;136.50;25.70;;;;;;;;;;5007045;28;22887;-50
2022/04/17 01:38:44;;;;;;;169.90;33.90;;;;;;;;;;5000012;28;20239;-50
2022/04/17 01:41:12;;;;;;;87.13;17.43;;;;;;;;;;5005263;28;20438;-50
2022/04/17 01:43:38;;;;;;;161.00;30.80;;;;;;;;;;5000136;28;20219;-50
2022/04/17 01:46:04;;;;;;;100.17;19.47;;;;;;;;;;5000199;28;20233;-50
2022/04/17 01:48:30;;;;;;;147.20;27.93;;;;;;;;;;4998198;28;20596;-50
2022/04/17 01:50:56;;;;;;;206.83;40.30;;;;;;;;;;4994293;28;20216;-50
2022/04/17 01:53:22;;;;;;;97.47;20.90;;;;;;;;;;5005621;28;20226;-50
2022/04/17 01:55:47;;;;;;;40.87;9.63;;;;;;;;;;5010734;28;20262;-49
2022/04/17 01:58:13;;;;;;;150.73;31.60;;;;;;;;;;4997951;28;20328;-50
2022/04/17 02:00:39;;;;;;;57.87;13.87;;;;;;;;;;5001366;28;20390;-50
2022/04/17 02:03:05;;;;;;;170.27;33.93;;;;;;;;;;5001982;28;20331;-51
2022/04/17 02:05:31;;;;;;;149.27;32.27;;;;;;;;;;5002005;28;20208;-51
2022/04/17 02:07:57;;;;;;;110.53;24.10;;;;;;;;;;5005107;28;20711;-50
2022/04/17 02:10:23;;;;;;;102.50;22.20;;;;;;;;;;5009739;28;20222;-50
2022/04/17 02:12:49;;;;;;;165.43;36.07;;;;;;;;;;5005520;28;20665;-50
2022/04/17 02:15:16;;;;;;;155.47;31.10;;;;;;;;;;5003350;28;20684;-50
2022/04/17 02:17:42;;;;;;;71.87;16.07;;;;;;;;;;5013382;28;20231;-50
2022/04/17 02:20:09;;;;;;;167.07;35.20;;;;;;;;;;5007821;28;20303;-50
2022/04/17 02:22:35;;;;;;;137.90;27.93;;;;;;;;;;4998042;28;20220;-50
2022/04/17 02:25:00;;;;;;;137.10;28.33;;;;;;;;;;4998505;28;20220;-49
2022/04/17 02:27:26;;;;;;;154.50;31.83;;;;;;;;;;4999733;28;20215;-50
2022/04/17 02:29:52;;;;;;;93.90;19.97;;;;;;;;;;4991381;28;20955;-50
2022/04/17 02:32:18;;;;;;;144.00;29.37;;;;;;;;;;5000408;28;20188;-50
2022/04/17 02:34:44;;;;;;;118.07;24.33;;;;;;;;;;5001629;28;20216;-50
2022/04/17 02:37:10;;;;;;;154.03;31.17;;;;;;;;;;4993712;28;20677;-50
2022/04/17 02:39:37;;;;;;;141.17;27.17;;;;;;;;;;4996683;28;21558;-50
2022/04/17 02:42:03;;;;;;;199.20;41.00;;;;;;;;;;5001538;28;20212;-50
2022/04/17 02:44:29;;;;;;;140.90;28.30;;;;;;;;;;4996344;28;20279;-50
2022/04/17 02:49:40;;;;;;;195.43;36.67;;;;;;;;;;5009052;28;20675;-50
2022/04/17 02:52:06;;;;;;;184.80;35.77;;;;;;;;;;5003528;28;20205;-50
2022/04/17 02:54:32;;;;;;;64.57;13.50;;;;;;;;;;4999257;28;20216;-50
2022/04/17 02:56:58;;;;;;;114.77;23.40;;;;;;;;;;5011738;28;20251;-50
2022/04/17 02:59:24;;;;;;;120.03;23.33;;;;;;;;;;5009793;28;20680;-50
2022/04/17 03:07:19;;;;;;;114.83;21.73;;;;;;;;;;5003114;28;20593;-50
2022/04/17 03:09:45;;;;;;;161.00;30.20;;;;;;;;;;4998463;28;20220;-49
2022/04/17 03:12:11;;;;;;;61.53;12.07;;;;;;;;;;5005787;28;20593;-50
2022/04/17 03:14:37;;;;;;;63.37;13.20;;;;;;;;;;5015307;28;20176;-50
2022/04/17 03:17:04;;;;;;;220.20;40.23;;;;;;;;;;5002493;28;20689;-49
2022/04/17 03:19:30;;;;;;;66.63;12.97;;;;;;;;;;5008591;28;20223;-50
2022/04/17 03:21:56;;;;;;;209.70;40.53;;;;;;;;;;4997595;28;20230;-49
2022/04/17 03:24:22;;;;;;;205.00;73.00;;;;;;;;;;4993542;28;20227;-50
2022/04/17 03:26:48;;;;;;;127.90;20.37;;;;;;;;;;5005394;28;20423;-50
2022/04/17 03:29:15;;;;;;;175.80;27.83;;;;;;;;;;5000559;28;20196;-50
2022/04/17 03:31:40;;;;;;;110.53;17.27;;;;;;;;;;5003589;28;20216;-50
2022/04/17 03:34:08;;;;;;;76.73;12.10;;;;;;;;;;5008907;28;20269;-50
2022/04/17 03:36:37;;;;;;;167.00;24.97;;;;;;;;;;4998943;28;20235;-50
2022/04/17 03:39:03;;;;;;;140.83;21.43;;;;;;;;;;4999607;28;20751;-50
2022/04/17 03:41:28;;;;;;;39.30;6.70;;;;;;;;;;5004937;28;20458;-50
2022/04/17 03:43:54;;;;;;;124.17;18.63;;;;;;;;;;5006355;28;20270;-50
2022/04/17 03:46:20;;;;;;;94.73;14.13;;;;;;;;;;4997626;28;20420;-50
2022/04/17 03:48:46;;;;;;;68.70;10.93;;;;;;;;;;5003766;28;20263;-49
2022/04/17 03:51:12;;;;;;;129.43;19.00;;;;;;;;;;5006889;28;20561;-50
2022/04/17 03:53:38;;;;;;;132.73;19.87;;;;;;;;;;5004290;28;20227;-50
2022/04/17 03:56:04;;;;;;;131.30;19.87;;;;;;;;;;5002900;28;20207;-50
2022/04/17 03:58:30;;;;;;;92.10;14.00;;;;;;;;;;5007987;28;20247;-50
2022/04/17 04:00:56;;;;;;;163.67;24.13;;;;;;;;;;4994210;28;20212;-50
2022/04/17 04:03:22;;;;;;;159.80;23.13;;;;;;;;;;4997576;28;20212;-50
2022/04/17 04:05:48;;;;;;;203.63;29.47;;;;;;;;;;4997497;28;20306;-51
2022/04/17 04:08:14;;;;;;;101.17;15.73;;;;;;;;;;5000526;28;20199;-50
2022/04/17 04:10:40;;;;;;;137.10;20.17;;;;;;;;;;4997374;28;20226;-50
2022/04/17 04:13:06;;;;;;;65.40;10.13;;;;;;;;;;5004894;28;20212;-51
2022/04/17 04:15:32;;;;;;;138.93;20.20;;;;;;;;;;4996662;28;20228;-51
2022/04/17 04:17:58;;;;;;;123.63;18.33;;;;;;;;;;5002530;28;20674;-50
2022/04/17 04:20:24;;;;;;;143.20;21.03;;;;;;;;;;5006259;28;20262;-50
2022/04/17 04:22:50;;;;;;;131.53;19.53;;;;;;;;;;4999150;28;20213;-50
2022/04/17 04:25:16;;;;;;;119.43;17.30;;;;;;;;;;5000884;28;20221;-50
2022/04/17 04:30:26;;;;;;;120.63;17.57;;;;;;;;;;5003283;28;20266;-51
2022/04/17 04:32:53;;;;;;;110.13;16.53;;;;;;;;;;5018909;28;20707;-50
2022/04/17 04:35:19;;;;;;;92.03;13.80;;;;;;;;;;5002862;28;20581;-50
2022/04/17 04:37:45;;;;;;;163.80;23.93;;;;;;;;;;4997185;28;20221;-51
2022/04/17 04:40:11;;;;;;;110.73;16.47;;;;;;;;;;5008185;28;20266;-50
2022/04/17 04:42:37;;;;;;;72.63;11.27;;;;;;;;;;5005585;28;20224;-51
2022/04/17 04:47:48;;;;;;;115.20;17.83;;;;;;;;;;5006981;28;20251;-50
2022/04/17 04:50:14;;;;;;;146.77;21.53;;;;;;;;;;5004336;28;20294;-50
2022/04/17 04:52:40;;;;;;;162.77;24.40;;;;;;;;;;4999964;28;20759;-50
2022/04/17 04:55:06;;;;;;;112.23;16.67;;;;;;;;;;5004549;28;20216;-51
2022/04/17 04:57:32;;;;;;;107.20;16.10;;;;;;;;;;5007936;28;20251;-50
2022/04/17 04:59:58;;;;;;;146.47;21.97;;;;;;;;;;5000191;28;20311;-51
2022/04/17 05:02:24;;;;;;;132.27;20.47;;;;;;;;;;5000737;28;20197;-50
2022/04/17 05:04:50;;;;;;;81.87;12.83;;;;;;;;;;5004628;28;20653;-50
2022/04/17 05:07:16;;;;;;;126.13;18.53;;;;;;;;;;5003761;28;20409;-50
2022/04/17 05:09:42;;;;;;;105.63;16.47;;;;;;;;;;4999210;28;20219;-51
2022/04/17 05:12:08;;;;;;;183.53;26.53;;;;;;;;;;5004405;28;20216;-51
2022/04/17 05:14:34;;;;;;;180.73;27.47;;;;;;;;;;4997529;28;20180;-50
2022/04/17 05:17:00;;;;;;;158.37;23.83;;;;;;;;;;5007052;28;20200;-50
2022/04/17 05:19:27;;;;;;;61.50;9.83;;;;;;;;;;5005760;28;20588;-50
2022/04/17 05:21:57;;;;;;;196.60;29.27;;;;;;;;;;4999033;28;20405;-50
2022/04/17 05:24:24;;;;;;;133.80;20.27;;;;;;;;;;4998529;28;21364;-51
2022/04/17 05:26:50;;;;;;;74.63;11.83;;;;;;;;;;5005614;28;20722;-50
2022/04/17 05:29:16;;;;;;;126.17;19.10;;;;;;;;;;5006265;28;20250;-51
2022/04/17 05:31:43;;;;;;;144.70;21.43;;;;;;;;;;5001891;28;20616;-51
2022/04/17 05:34:09;;;;;;;126.33;18.67;;;;;;;;;;4997913;28;20220;-50
2022/04/17 05:36:35;;;;;;;141.03;21.50;;;;;;;;;;4996438;28;20215;-51
2022/04/17 05:39:01;;;;;;;130.77;19.60;;;;;;;;;;5002603;28;20228;-51
2022/04/17 05:41:27;;;;;;;88.50;14.17;;;;;;;;;;4998671;28;20250;-50
2022/04/17 05:43:54;;;;;;;139.47;21.03;;;;;;;;;;5002858;28;20184;-50
2022/04/17 05:46:20;;;;;;;85.80;13.60;;;;;;;;;;4998241;28;20234;-51
2022/04/17 05:48:46;;;;;;;61.63;9.90;;;;;;;;;;5004559;28;20216;-51
2022/04/17 05:51:12;;;;;;;182.97;25.80;;;;;;;;;;5000265;28;20369;-53
2022/04/17 05:53:38;;;;;;;88.20;13.73;;;;;;;;;;5005082;28;20192;-53
2022/04/17 05:56:05;;;;;;;101.07;15.23;;;;;;;;;;5006720;28;20743;-54
2022/04/17 05:58:31;;;;;;;99.80;14.97;;;;;;;;;;5010913;28;20223;-54
2022/04/17 06:00:57;;;;;;;90.00;13.70;;;;;;;;;;4998065;28;20208;-53
2022/04/17 06:03:23;;;;;;;115.27;17.60;;;;;;;;;;5005042;28;21344;-53
2022/04/17 06:05:49;;;;;;;96.37;14.90;;;;;;;;;;5001541;28;20213;-54
2022/04/17 06:08:15;;;;;;;120.53;18.80;;;;;;;;;;4983071;28;20218;-54
2022/04/17 06:10:41;;;;;;;62.57;10.40;;;;;;;;;;4996599;28;20577;-54
2022/04/17 06:13:07;;;;;;;252.17;39.37;;;;;;;;;;4992075;28;20649;-53
2022/04/17 06:15:33;;;;;;;105.73;16.47;;;;;;;;;;4997225;28;20219;-54
2022/04/17 06:17:59;;;;;;;146.57;22.83;;;;;;;;;;5004177;28;20311;-54
2022/04/17 06:20:25;;;;;;;221.23;35.90;;;;;;;;;;4998768;28;20216;-54
2022/04/17 06:22:51;;;;;;;188.73;30.20;;;;;;;;;;4998259;28;20185;-54
2022/04/17 06:25:17;;;;;;;166.00;26.80;;;;;;;;;;4999702;28;20748;-54
2022/04/17 06:27:44;;;;;;;133.60;20.93;;;;;;;;;;4998456;28;20277;-54
2022/04/17 06:30:12;;;;;;;175.70;27.23;;;;;;;;;;5002762;28;20239;-53
2022/04/17 06:32:38;;;;;;;213.33;35.83;;;;;;;;;;4993081;28;20196;-53
2022/04/17 06:35:05;;;;;;;195.83;32.73;;;;;;;;;;5003969;28;20282;-54
2022/04/17 06:37:31;;;;;;;205.73;32.67;;;;;;;;;;4999022;28;20662;-54
2022/04/17 06:39:57;;;;;;;154.13;24.97;;;;;;;;;;4992618;28;21000;-54
2022/04/17 06:42:23;;;;;;;87.40;14.13;;;;;;;;;;5007940;28;20693;-54
2022/04/17 06:44:49;;;;;;;75.43;12.57;;;;;;;;;;5012573;28;20311;-54
2022/04/17 06:47:16;;;;;;;169.23;26.80;;;;;;;;;;5010247;28;20293;-54
2022/04/17 06:49:41;;;;;;;175.23;27.87;;;;;;;;;;5006075;28;20395;-54
2022/04/17 06:52:07;;;;;;;176.53;28.13;;;;;;;;;;5005206;28;20304;-54
2022/04/17 06:54:33;;;;;;;57.47;10.00;;;;;;;;;;5012821;28;20550;-54
2022/04/17 06:57:00;;;;;;;109.27;17.80;;;;;;;;;;5013767;28;20223;-54
2022/04/17 06:59:26;;;;;;;196.20;32.57;;;;;;;;;;4998416;28;20773;-54
2022/04/17 07:01:52;;;;;;;162.63;26.37;;;;;;;;;;5009446;28;20176;-54
2022/04/17 07:04:18;;;;;;;99.27;16.63;;;;;;;;;;5011937;28;20242;-54
2022/04/17 07:06:44;;;;;;;122.20;20.00;;;;;;;;;;5001793;28;20443;-54
2022/04/17 07:09:10;;;;;;;105.33;17.27;;;;;;;;;;5006178;28;20220;-54
2022/04/17 07:11:36;;;;;;;164.87;26.60;;;;;;;;;;4997635;28;20314;-53
2022/04/17 07:14:03;;;;;;;219.07;32.43;;;;;;;;;;4995433;28;20176;-53
2022/04/17 07:16:29;;;;;;;265.50;39.50;;;;;;;;;;5002029;28;20701;-53
2022/04/17 07:18:55;;;;;;;187.77;28.20;;;;;;;;;;4998608;28;20269;-53
2022/04/17 07:21:21;;;;;;;223.07;34.03;;;;;;;;;;4992376;28;20228;-53
2022/04/17 07:23:47;;;;;;;117.00;18.33;;;;;;;;;;5010447;28;20705;-52
2022/04/17 07:26:14;;;;;;;118.53;18.20;;;;;;;;;;5004278;28;20322;-52
2022/04/17 07:28:40;;;;;;;105.53;16.13;;;;;;;;;;5016568;28;20231;-52
2022/04/17 07:31:06;;;;;;;142.47;21.57;;;;;;;;;;5003965;28;20216;-52
2022/04/17 07:33:32;;;;;;;161.90;24.37;;;;;;;;;;5011313;28;20273;-51
2022/04/17 07:35:58;;;;;;;133.77;21.67;;;;;;;;;;5005019;28;20232;-52
2022/04/17 07:38:24;;;;;;;76.33;12.97;;;;;;;;;;5017172;28;20222;-52
2022/04/17 07:40:51;;;;;;;73.73;12.47;;;;;;;;;;5009177;28;20186;-52
2022/04/17 07:43:17;;;;;;;137.93;20.63;;;;;;;;;;5015792;28;20477;-52
2022/04/17 07:45:43;;;;;;;122.27;19.13;;;;;;;;;;5018680;28;20240;-51
2022/04/17 07:48:09;;;;;;;219.53;31.53;;;;;;;;;;5003057;28;20223;-51
2022/04/17 07:50:35;;;;;;;123.33;19.37;;;;;;;;;;5006727;28;23597;-52
2022/04/17 07:53:01;;;;;;;111.30;16.97;;;;;;;;;;5014669;28;20712;-53
2022/04/17 07:55:27;;;;;;;80.87;12.97;;;;;;;;;;5018601;28;20303;-52
2022/04/17 07:58:01;;;;;;;79.00;12.90;;;;;;;;;;5010617;28;20578;-52
2022/04/17 08:00:31;;;;;;;129.27;20.47;;;;;;;;;;5004672;28;20216;-52
2022/04/17 08:03:06;;;;;;;218.23;34.33;;;;;;;;;;5009019;28;20220;-51
2022/04/17 08:05:34;;;;;;;94.47;17.20;;;;;;;;;;5004008;28;20196;-52
2022/04/17 08:08:00;;;;;;;80.47;15.23;;;;;;;;;;5017552;28;20589;-52
2022/04/17 08:10:26;;;;;;;100.40;18.20;;;;;;;;;;5006689;28;20366;-52
2022/04/17 08:12:52;;;;;;;121.97;21.97;;;;;;;;;;5005589;28;20299;-53
2022/04/17 08:15:18;;;;;;;118.83;20.90;;;;;;;;;;5010166;28;20213;-52
2022/04/17 08:17:44;;;;;;;93.87;17.03;;;;;;;;;;5012912;28;20217;-53
2022/04/17 08:20:10;;;;;;;167.20;28.60;;;;;;;;;;5005536;28;20289;-52
2022/04/17 08:22:36;;;;;;;82.50;14.77;;;;;;;;;;5011384;28;20213;-52
2022/04/17 08:25:03;;;;;;;124.00;21.57;;;;;;;;;;5009673;28;20736;-52
2022/04/17 08:27:28;;;;;;;147.43;25.93;;;;;;;;;;5010269;28;20260;-52
2022/04/17 08:29:54;;;;;;;126.73;22.37;;;;;;;;;;5010108;28;20499;-52
2022/04/17 08:32:20;;;;;;;119.27;20.97;;;;;;;;;;5009577;28;20187;-52
2022/04/17 08:34:46;;;;;;;79.80;14.30;;;;;;;;;;5010624;28;20180;-52
2022/04/17 08:37:12;;;;;;;94.27;17.13;;;;;;;;;;5010900;28;20693;-52
2022/04/17 08:39:38;;;;;;;129.50;22.07;;;;;;;;;;5015640;28;20224;-52
2022/04/17 08:42:06;;;;;;;137.60;22.73;;;;;;;;;;5016264;28;20693;-52
2022/04/17 08:44:32;;;;;;;78.43;14.23;;;;;;;;;;5018543;28;20652;-52
2022/04/17 08:46:58;;;;;;;138.30;23.80;;;;;;;;;;5012605;28;20215;-53
2022/04/17 08:49:25;;;;;;;194.83;33.80;;;;;;;;;;5010318;28;20212;-53
2022/04/17 08:51:53;;;;;;;88.53;15.53;;;;;;;;;;5014892;28;20212;-52
2022/04/17 08:54:21;;;;;;;167.23;29.23;;;;;;;;;;5008537;28;20816;-53
2022/04/17 08:56:46;;;;;;;135.87;26.13;;;;;;;;;;5012781;28;20223;-53
2022/04/17 08:59:13;;;;;;;372.70;68.83;;;;;;;;;;5005705;28;20652;-53
2022/04/17 09:01:39;;;;;;;221.67;42.40;;;;;;;;;;4986274;28;20571;-53
2022/04/17 09:04:05;;;;;;;170.63;33.23;;;;;;;;;;5010203;28;20764;-53
2022/04/17 09:06:31;;;;;;;151.83;28.20;;;;;;;;;;5012018;28;20227;-53
2022/04/17 09:09:01;;;;;;;117.67;22.47;;;;;;;;;;5009927;28;20220;-52
2022/04/17 09:11:28;;;;;;;85.30;20.93;;;;;;;;;;5013143;28;20254;-52
2022/04/17 09:13:59;;;;;;;79.77;23.27;;;;;;;;;;5011592;28;20668;-51
2022/04/17 09:16:34;;;;;;;149.10;61.87;;;;;;;;;;5007831;28;20220;-51
2022/04/17 09:19:11;;;;;;;111.53;44.40;;;;;;;;;;5008235;28;20219;-52
2022/04/17 09:21:37;;;;;;;87.70;27.77;;;;;;;;;;5001502;28;20230;-52
2022/04/17 09:24:12;;;;;;;146.30;45.30;;;;;;;;;;5006208;28;20212;-52
2022/04/17 09:26:38;;;;;;;69.60;22.37;;;;;;;;;;5013669;28;20696;-52
2022/04/17 09:29:17;;;;;;;90.80;26.27;;;;;;;;;;5011142;28;20179;-52
2022/04/17 09:31:42;;;;;;;148.70;37.43;;;;;;;;;;5025800;28;20227;-52
2022/04/17 09:34:08;;;;;;;144.07;33.53;;;;;;;;;;5009976;28;20220;-52
2022/04/17 09:36:37;;;;;;;183.83;39.97;;;;;;;;;;5011138;28;20625;-52
2022/04/17 09:39:14;;;;;;;215.67;44.33;;;;;;;;;;5008160;28;20239;-52
2022/04/17 09:41:55;;;;;;;146.20;34.40;;;;;;;;;;5006152;28;20246;-52
2022/04/17 09:44:34;;;;;;;73.60;22.80;;;;;;;;;;5010987;28;20772;-52
2022/04/17 09:47:00;;;;;;;101.53;28.53;;;;;;;;;;5007436;28;20225;-51
2022/04/17 09:49:26;;;;;;;153.27;49.47;;;;;;;;;;5002511;28;20291;-51
2022/04/17 09:52:06;;;;;;;164.37;49.30;;;;;;;;;;5004223;28;20307;-51
2022/04/17 09:54:32;;;;;;;117.53;38.07;;;;;;;;;;5014195;28;20311;-51
2022/04/17 09:56:58;;;;;;;119.23;38.23;;;;;;;;;;5021193;28;20254;-51
2022/04/17 09:59:24;;;;;;;103.87;42.10;;;;;;;;;;5010110;28;20217;-51
2022/04/17 10:01:57;;;;;;;148.30;47.43;;;;;;;;;;5019714;28;20230;-51
2022/04/17 10:04:24;;;;;;;132.37;50.93;;;;;;;;;;5010513;28;20229;-51
2022/04/17 10:06:51;;;;;;;153.03;53.00;;;;;;;;;;5008114;28;20216;-53
2022/04/17 10:09:17;;;;;;;186.20;70.60;;;;;;;;;;5009725;28;20258;-52
2022/04/17 10:11:43;;;;;;;165.83;64.50;;;;;;;;;;5009235;28;20224;-52
2022/04/17 10:14:09;;;;;;;139.87;54.90;;;;;;;;;;5011918;28;20565;-52
2022/04/17 10:16:39;;;;;;;120.60;58.63;;;;;;;;;;5013027;28;20216;-52
2022/04/17 10:19:06;;;;;;;137.90;62.77;;;;;;;;;;5007194;28;20224;-51
2022/04/17 10:21:35;;;;;;;109.57;52.97;;;;;;;;;;5011722;28;20205;-52
2022/04/17 10:24:02;;;;;;;132.97;54.77;;;;;;;;;;5011482;28;20260;-51
2022/04/17 10:26:29;;;;;;;116.23;62.70;;;;;;;;;;5015088;28;20265;-51
2022/04/17 10:28:57;;;;;;;101.93;64.90;;;;;;;;;;5021902;28;20185;-52
2022/04/17 10:31:26;;;;;;;173.97;80.57;;;;;;;;;;5007324;28;20239;-51
2022/04/17 10:34:23;;;;;;;288.10;120.73;;;;;;;;;;5005018;28;20756;-51
2022/04/17 10:37:01;;;;;;;134.87;33.73;;;;;;;;;;5015096;28;20334;-51
2022/04/17 10:39:36;;;;;;;156.83;35.07;;;;;;;;;;5014716;28;20648;-51
2022/04/17 10:42:02;;;;;;;183.00;35.67;;;;;;;;;;5019725;28;20303;-51
2022/04/17 10:44:32;;;;;;;82.87;19.53;;;;;;;;;;5023075;28;20281;-51
2022/04/17 10:47:03;;;;;;;121.53;30.87;;;;;;;;;;5017276;28;20212;-51
2022/04/17 10:49:29;;;;;;;193.67;45.57;;;;;;;;;;5008603;28;20213;-51
2022/04/17 10:51:56;;;;;;;136.30;33.70;;;;;;;;;;5014316;28;20212;-51
2022/04/17 10:54:22;;;;;;;195.57;46.43;;;;;;;;;;5016201;28;20255;-51
2022/04/17 10:56:54;;;;;;;106.13;27.13;;;;;;;;;;5007366;28;20220;-51
2022/04/17 10:59:21;;;;;;;196.60;46.33;;;;;;;;;;5007358;28;20732;-51
2022/04/17 11:01:50;;;;;;;123.73;30.47;;;;;;;;;;5010011;28;20185;-52
2022/04/17 11:04:17;;;;;;;96.90;25.47;;;;;;;;;;5006431;28;20645;-52
2022/04/17 11:06:44;;;;;;;98.63;27.00;;;;;;;;;;5008349;28;20223;-52
2022/04/17 11:09:12;;;;;;;93.80;39.60;;;;;;;;;;5010240;28;20297;-52
2022/04/17 11:11:45;;;;;;;194.93;98.17;;;;;;;;;;5012246;28;21649;-52
2022/04/17 11:14:13;;;;;;;159.27;69.60;;;;;;;;;;5008721;28;20192;-52
2022/04/17 11:16:46;;;;;;;108.27;39.13;;;;;;;;;;5016862;28;20709;-52
2022/04/17 11:19:14;;;;;;;101.53;27.60;;;;;;;;;;5007210;28;20490;-52
2022/04/17 11:21:44;;;;;;;152.20;39.27;;;;;;;;;;5006944;28;20214;-52
2022/04/17 11:24:10;;;;;;;124.27;35.83;;;;;;;;;;5020389;28;20415;-51
2022/04/17 11:26:52;;;;;;;174.47;59.97;;;;;;;;;;4999579;28;20652;-52
2022/04/17 11:29:33;;;;;;;173.80;54.07;;;;;;;;;;5005366;28;20515;-52
2022/04/17 11:31:59;;;;;;;173.30;59.53;;;;;;;;;;5006465;28;20232;-52
2022/04/17 11:34:25;;;;;;;190.93;50.43;;;;;;;;;;4992851;28;20220;-52
2022/04/17 11:36:51;;;;;;;105.73;31.77;;;;;;;;;;5005591;28;20243;-52
2022/04/17 11:39:27;;;;;;;175.43;55.30;;;;;;;;;;5003707;28;20247;-52
2022/04/17 11:41:53;;;;;;;244.70;77.33;;;;;;;;;;5004121;28;20681;-52
2022/04/17 11:44:19;;;;;;;131.37;43.77;;;;;;;;;;5002052;28;20192;-52
2022/04/17 11:46:45;;;;;;;165.97;58.77;;;;;;;;;;5006294;28;20588;-52
2022/04/17 11:49:11;;;;;;;165.33;63.30;;;;;;;;;;5007343;28;20213;-52
2022/04/17 11:51:43;;;;;;;239.03;105.63;;;;;;;;;;5001168;28;20653;-52
2022/04/17 11:54:29;;;;;;;239.93;123.50;;;;;;;;;;5002450;28;20717;-52
2022/04/17 11:56:55;;;;;;;197.70;114.90;;;;;;;;;;5003877;28;20690;-52
2022/04/17 11:59:21;;;;;;;267.23;135.73;;;;;;;;;;4996776;28;20204;-52
2022/04/17 12:02:06;;;;;;;223.93;123.17;;;;;;;;;;5007773;28;20204;-52
2022/04/17 12:04:33;;;;;;;321.30;155.33;;;;;;;;;;4999527;28;20380;-52
2022/04/17 12:06:59;;;;;;;279.77;143.87;;;;;;;;;;4994653;28;20612;-52
2022/04/17 12:09:25;;;;;;;407.13;195.90;;;;;;;;;;5002007;28;20458;-52
2022/04/17 12:11:51;;;;;;;337.23;166.97;;;;;;;;;;5005414;28;20691;-52
2022/04/17 12:14:29;;;;;;;245.80;131.93;;;;;;;;;;5007113;28;20177;-52
2022/04/17 12:16:55;;;;;;;342.90;173.63;;;;;;;;;;5001240;28;20862;-52
2022/04/17 12:19:21;;;;;;;387.93;195.40;;;;;;;;;;4999278;28;20318;-53
2022/04/17 12:21:50;;;;;;;325.93;167.07;;;;;;;;;;4992402;28;20453;-53
2022/04/17 12:24:16;;;;;;;472.17;232.23;;;;;;;;;;4991318;28;20213;-52
2022/04/17 12:26:43;;;;;;;367.70;189.13;;;;;;;;;;4997634;28;20774;-52
2022/04/17 12:29:09;;;;;;;367.90;190.37;;;;;;;;;;5011212;28;20228;-53
2022/04/17 12:31:35;;;;;;;445.33;218.80;;;;;;;;;;4989162;28;20293;-53
2022/04/17 12:34:13;;;;;;;254.80;144.47;;;;;;;;;;5006781;28;20302;-53
2022/04/17 12:36:42;;;;;;;410.30;204.77;;;;;;;;;;5002241;28;20694;-53
2022/04/17 12:39:08;;;;;;;322.73;169.83;;;;;;;;;;5004253;28;20235;-53
2022/04/17 12:41:54;;;;;;;303.13;160.07;;;;;;;;;;4997114;28;20216;-52
2022/04/17 12:44:33;;;;;;;317.20;168.57;;;;;;;;;;5012544;28;20188;-53
2022/04/17 12:47:12;;;;;;;272.00;148.60;;;;;;;;;;5010761;28;20270;-52
2022/04/17 12:49:39;;;;;;;249.98;142.65;;;;;;;;;;4994644;28;20304;-52
2022/04/17 12:52:05;;;;;;;245.27;135.48;;;;;;;;;;5005883;28;20222;-53
2022/04/17 12:54:31;;;;;;;126.85;74.78;;;;;;;;;;5010245;28;20258;-53
2022/04/17 12:57:12;;;;;;;210.98;121.38;;;;;;;;;;5001801;28;20217;-53
2022/04/17 12:59:42;;;;;;;156.05;82.28;;;;;;;;;;5009958;28;20320;-53
2022/04/17 13:02:12;;;;;;;164.95;69.55;;;;;;;;;;5007385;28;20691;-53
2022/04/17 13:04:42;;;;;;;413.85;158.63;;;;;;;;;;5004873;28;20208;-53
2022/04/17 13:07:10;;;;;;;314.75;100.43;;;;;;;;;;4989778;28;20224;-53
2022/04/17 13:09:36;;;;;;;273.02;97.32;;;;;;;;;;4996880;28;20312;-53
2022/04/17 13:12:02;;;;;;;295.25;158.85;;;;;;;;;;5001444;28;20295;-53
2022/04/17 13:14:28;;;;;;;281.23;162.65;;;;;;;;;;5004496;28;20185;-53
2022/04/17 13:16:56;;;;;;;318.42;179.77;;;;;;;;;;4993682;28;20606;-54
2022/04/17 13:19:24;;;;;;;508.67;260.90;;;;;;;;;;4988571;28;20228;-53
2022/04/17 13:21:51;;;;;;;391.13;198.40;;;;;;;;;;4997540;28;20223;-53
2022/04/17 13:24:19;;;;;;;403.15;203.65;;;;;;;;;;5011874;28;20204;-53
2022/04/17 13:26:45;;;;;;;464.80;236.40;;;;;;;;;;5002639;28;20702;-53
2022/04/17 13:29:12;;;;;;;530.77;268.93;;;;;;;;;;5006049;28;20203;-53
2022/04/17 13:31:38;;;;;;;349.55;185.32;;;;;;;;;;5012796;28;20416;-53
2022/04/17 13:34:04;;;;;;;440.92;227.80;;;;;;;;;;5004479;28;20297;-53
2022/04/17 13:36:30;;;;;;;547.92;285.92;;;;;;;;;;5002291;28;21930;-53
2022/04/17 13:38:56;;;;;;;135.32;28.05;;;;;;;;;;5009860;28;20378;-53
2022/04/17 13:41:23;;;;;;;102.75;22.38;;;;;;;;;;5014604;28;20697;-53
2022/04/17 13:43:49;;;;;;;196.45;42.00;;;;;;;;;;4998752;28;20226;-53
2022/04/17 13:46:15;;;;;;;118.68;24.02;;;;;;;;;;4995879;28;20233;-53
2022/04/17 13:48:43;;;;;;;85.80;17.48;;;;;;;;;;5002056;28;20394;-53
2022/04/17 13:51:09;;;;;;;176.23;36.67;;;;;;;;;;5005123;28;20266;-53
2022/04/17 13:53:35;;;;;;;184.70;38.30;;;;;;;;;;5007433;28;20267;-53
2022/04/17 13:56:02;;;;;;;85.18;17.92;;;;;;;;;;5007711;28;20193;-53
2022/04/17 13:58:28;;;;;;;166.82;35.53;;;;;;;;;;5005144;28;20290;-54
2022/04/17 14:00:56;;;;;;;137.43;29.20;;;;;;;;;;5002314;28;20212;-53
2022/04/17 14:03:21;;;;;;;90.90;20.40;;;;;;;;;;5001752;28;20211;-54
2022/04/17 14:05:48;;;;;;;206.13;45.42;;;;;;;;;;5000762;28;20254;-53
2022/04/17 14:08:14;;;;;;;87.60;21.02;;;;;;;;;;5013125;28;20935;-54
2022/04/17 14:10:40;;;;;;;79.30;19.33;;;;;;;;;;5009473;28;20240;-53
2022/04/17 14:13:08;;;;;;;95.07;22.42;;;;;;;;;;5006172;28;20232;-54
2022/04/17 14:15:34;;;;;;;147.43;33.25;;;;;;;;;;5007489;28;20703;-54
2022/04/17 14:18:00;;;;;;;92.97;20.92;;;;;;;;;;5006541;28;20217;-53
2022/04/17 14:20:26;;;;;;;129.85;31.75;;;;;;;;;;5011712;28;20693;-53
2022/04/17 14:22:52;;;;;;;98.13;24.55;;;;;;;;;;5009252;28;20180;-54
2022/04/17 14:25:18;;;;;;;96.50;22.33;;;;;;;;;;5013654;28;20216;-54